createdAt,value
2017-09-08T00:00:00.988Z,13.50
2017-09-08T00:02:28.518Z,13.40
2017-09-08T00:04:57.023Z,13.30
2017-09-08T00:07:24.548Z,13.50
2017-09-08T00:09:52.948Z,13.40
2017-09-08T00:12:20.470Z,13.40
2017-09-08T00:14:48.013Z,13.30
2017-09-08T00:17:15.737Z,13.30
2017-09-08T00:19:44.292Z,13.30
2017-09-08T00:22:12.281Z,13.20
2017-09-08T00:24:39.844Z,13.20
2017-09-08T00:27:08.011Z,13.20
2017-09-08T00:29:35.544Z,13.10
2017-09-08T00:32:03.968Z,13.20
2017-09-08T00:34:32.265Z,13.00
2017-09-08T00:37:00.216Z,13.00
2017-09-08T00:39:28.152Z,12.90
2017-09-08T00:41:55.668Z,12.90
2017-09-08T00:44:23.337Z,12.90
2017-09-08T00:46:50.865Z,12.90
2017-09-08T00:49:19.279Z,12.90
2017-09-08T00:51:46.780Z,13.00
2017-09-08T00:54:14.881Z,12.80
2017-09-08T00:56:42.392Z,12.80
2017-09-08T00:59:09.904Z,12.90
2017-09-08T01:01:37.442Z,12.90
2017-09-08T01:04:05.500Z,12.80
2017-09-08T01:06:33.020Z,12.80
2017-09-08T01:09:03.032Z,12.90
2017-09-08T01:11:30.590Z,12.70
2017-09-08T01:13:58.167Z,12.80
2017-09-08T01:16:25.716Z,12.70
2017-09-08T01:18:53.257Z,12.70
2017-09-08T01:21:21.551Z,12.60
2017-09-08T01:23:50.608Z,12.40
2017-09-08T01:26:18.135Z,12.40
2017-09-08T01:28:45.649Z,12.40
2017-09-08T01:31:13.943Z,12.40
2017-09-08T01:33:41.448Z,12.40
2017-09-08T01:36:09.741Z,12.50
2017-09-08T01:38:37.266Z,12.50
2017-09-08T01:41:05.629Z,12.70
2017-09-08T01:43:34.436Z,12.70
2017-09-08T01:46:01.959Z,12.70
2017-09-08T01:48:29.464Z,12.70
2017-09-08T01:50:57.100Z,12.70
2017-09-08T01:53:24.616Z,12.50
2017-09-08T01:55:52.145Z,12.50
2017-09-08T01:58:19.651Z,12.40
2017-09-08T02:00:47.183Z,12.40
2017-09-08T02:03:14.701Z,12.30
2017-09-08T02:05:42.238Z,12.30
2017-09-08T02:08:09.756Z,12.30
2017-09-08T02:10:37.929Z,12.20
2017-09-08T02:13:05.549Z,12.30
2017-09-08T02:15:33.072Z,12.30
2017-09-08T02:18:01.364Z,12.40
2017-09-08T02:20:28.886Z,12.40
2017-09-08T02:22:56.423Z,12.50
2017-09-08T02:25:23.934Z,12.70
2017-09-08T02:27:51.462Z,12.80
2017-09-08T02:30:18.976Z,12.80
2017-09-08T02:32:47.344Z,12.70
2017-09-08T02:35:14.857Z,12.80
2017-09-08T02:37:43.159Z,12.60
2017-09-08T02:40:10.670Z,12.60
2017-09-08T02:42:38.197Z,12.70
2017-09-08T02:45:05.722Z,12.80
2017-09-08T02:47:33.254Z,12.60
2017-09-08T02:50:00.769Z,12.60
2017-09-08T02:52:28.296Z,12.70
2017-09-08T02:54:55.816Z,12.70
2017-09-08T02:57:24.028Z,12.50
2017-09-08T02:59:52.447Z,12.70
2017-09-08T03:02:20.859Z,12.60
2017-09-08T03:04:50.372Z,12.70
2017-09-08T03:07:17.903Z,12.80
2017-09-08T03:09:45.415Z,12.80
2017-09-08T03:12:12.947Z,12.50
2017-09-08T03:14:40.452Z,12.60
2017-09-08T03:17:08.749Z,12.70
2017-09-08T03:19:36.256Z,12.60
2017-09-08T03:22:03.802Z,12.90
2017-09-08T03:24:32.221Z,12.80
2017-09-08T03:26:59.729Z,12.70
2017-09-08T03:29:27.276Z,13.00
2017-09-08T03:31:54.780Z,13.10
2017-09-08T03:34:22.313Z,12.80
2017-09-08T03:36:49.830Z,12.70
2017-09-08T03:39:17.367Z,13.00
2017-09-08T03:41:44.885Z,12.90
2017-09-08T03:44:12.411Z,12.80
2017-09-08T03:46:39.920Z,12.70
2017-09-08T03:49:07.492Z,12.90
2017-09-08T03:51:35.782Z,12.90
2017-09-08T03:54:03.305Z,12.70
2017-09-08T03:56:32.032Z,12.80
2017-09-08T03:58:59.556Z,12.90
2017-09-08T04:01:27.063Z,12.90
2017-09-08T04:03:54.592Z,12.90
2017-09-08T04:06:22.863Z,12.90
2017-09-08T04:08:50.386Z,13.00
2017-09-08T04:11:18.043Z,12.90
2017-09-08T04:13:45.572Z,12.80
2017-09-08T04:16:13.082Z,13.10
2017-09-08T04:18:40.613Z,12.80
2017-09-08T04:21:08.121Z,12.80
2017-09-08T04:23:35.657Z,12.80
2017-09-08T04:26:03.182Z,12.90
2017-09-08T04:28:30.708Z,12.90
2017-09-08T04:30:58.247Z,13.00
2017-09-08T04:33:26.527Z,13.10
2017-09-08T04:35:54.835Z,13.10
2017-09-08T04:38:22.349Z,13.00
2017-09-08T04:40:49.875Z,13.00
2017-09-08T04:43:17.384Z,13.00
2017-09-08T04:45:44.919Z,13.00
2017-09-08T04:48:12.435Z,12.90
2017-09-08T04:50:39.978Z,13.00
2017-09-08T04:53:08.262Z,13.00
2017-09-08T04:55:35.798Z,13.00
2017-09-08T04:58:04.076Z,13.30
2017-09-08T05:00:32.368Z,13.30
2017-09-08T05:03:00.640Z,13.10
2017-09-08T05:05:28.197Z,13.10
2017-09-08T05:07:55.707Z,13.20
2017-09-08T05:10:23.232Z,13.30
2017-09-08T05:12:50.739Z,13.20
2017-09-08T05:15:19.396Z,13.10
2017-09-08T05:17:46.908Z,13.10
2017-09-08T05:20:14.518Z,13.10
2017-09-08T05:22:42.046Z,13.20
2017-09-08T05:25:10.355Z,13.20
2017-09-08T05:27:37.881Z,13.20
2017-09-08T05:30:06.154Z,13.30
2017-09-08T05:32:34.444Z,13.30
2017-09-08T05:35:01.956Z,13.30
2017-09-08T05:37:29.486Z,13.20
2017-09-08T05:39:56.997Z,13.30
2017-09-08T05:42:24.520Z,13.30
2017-09-08T05:44:52.028Z,13.30
2017-09-08T05:47:19.570Z,13.30
2017-09-08T05:49:47.098Z,13.20
2017-09-08T05:52:14.633Z,13.30
2017-09-08T05:54:42.143Z,13.30
2017-09-08T05:57:09.662Z,13.30
2017-09-08T05:59:37.199Z,13.30
2017-09-08T06:02:05.492Z,13.40
2017-09-08T06:04:33.016Z,13.40
2017-09-08T06:07:00.523Z,13.40
2017-09-08T06:09:28.070Z,13.50
2017-09-08T06:11:55.580Z,13.40
2017-09-08T06:14:23.101Z,13.50
2017-09-08T06:16:50.667Z,13.50
2017-09-08T06:19:18.196Z,13.50
2017-09-08T06:21:45.711Z,13.60
2017-09-08T06:24:13.234Z,13.60
2017-09-08T06:26:41.884Z,13.60
2017-09-08T06:29:09.519Z,13.50
2017-09-08T06:31:37.045Z,13.80
2017-09-08T06:34:04.576Z,13.80
2017-09-08T06:36:32.092Z,13.70
2017-09-08T06:39:00.764Z,13.80
2017-09-08T06:41:28.368Z,13.80
2017-09-08T06:43:55.901Z,13.70
2017-09-08T06:46:23.432Z,13.80
2017-09-08T06:48:50.990Z,13.80
2017-09-08T06:51:19.261Z,13.90
2017-09-08T06:53:47.582Z,13.90
2017-09-08T06:56:15.116Z,13.90
2017-09-08T06:58:42.637Z,13.80
2017-09-08T07:01:10.177Z,14.00
2017-09-08T07:03:37.685Z,14.10
2017-09-08T07:06:05.219Z,14.10
2017-09-08T07:08:32.724Z,14.10
2017-09-08T07:11:00.259Z,14.20
2017-09-08T07:13:27.768Z,14.30
2017-09-08T07:15:55.296Z,14.30
2017-09-08T07:18:22.804Z,14.60
2017-09-08T07:20:50.328Z,14.60
2017-09-08T07:23:17.831Z,14.50
2017-09-08T07:25:45.354Z,14.70
2017-09-08T07:28:12.859Z,14.80
2017-09-08T07:30:40.385Z,15.10
2017-09-08T07:33:07.899Z,15.00
2017-09-08T07:35:35.424Z,15.10
2017-09-08T07:38:02.947Z,15.00
2017-09-08T07:40:30.478Z,15.00
2017-09-08T07:42:58.751Z,15.80
2017-09-08T07:45:27.035Z,15.80
2017-09-08T07:47:55.317Z,15.80
2017-09-08T07:50:23.621Z,15.70
2017-09-08T07:52:51.129Z,15.40
2017-09-08T07:55:18.652Z,15.50
2017-09-08T07:57:46.165Z,15.30
2017-09-08T08:00:13.688Z,16.00
2017-09-08T08:02:41.203Z,15.50
2017-09-08T08:05:09.488Z,15.80
2017-09-08T08:07:36.992Z,16.00
2017-09-08T08:10:04.504Z,15.90
2017-09-08T08:12:32.034Z,16.00
2017-09-08T08:14:59.548Z,15.80
2017-09-08T08:17:27.073Z,16.20
2017-09-08T08:19:54.584Z,16.40
2017-09-08T08:22:22.115Z,16.50
2017-09-08T08:24:49.625Z,16.30
2017-09-08T08:27:17.147Z,16.30
2017-09-08T08:29:44.660Z,16.20
2017-09-08T08:32:12.184Z,16.10
2017-09-08T08:34:40.463Z,16.00
2017-09-08T08:37:07.996Z,16.00
2017-09-08T08:39:35.508Z,16.10
2017-09-08T08:42:03.028Z,15.90
2017-09-08T08:44:30.536Z,16.10
2017-09-08T08:46:58.836Z,16.00
2017-09-08T08:49:26.345Z,16.00
2017-09-08T08:51:53.872Z,16.00
2017-09-08T08:54:21.381Z,15.90
2017-09-08T08:56:49.672Z,15.80
2017-09-08T09:11:43.049Z,16.10
2017-09-08T09:14:10.572Z,16.10
2017-09-08T09:16:38.078Z,16.00
2017-09-08T09:19:05.624Z,16.30
2017-09-08T09:21:33.150Z,15.90
2017-09-08T09:24:01.452Z,16.30
2017-09-08T09:26:28.964Z,16.10
2017-09-08T09:28:57.624Z,16.20
2017-09-08T09:31:25.128Z,16.20
2017-09-08T09:33:53.417Z,16.30
2017-09-08T09:36:20.921Z,16.30
2017-09-08T09:38:48.461Z,16.60
2017-09-08T09:41:15.968Z,16.50
2017-09-08T09:43:43.491Z,16.50
2017-09-08T09:46:10.998Z,16.60
2017-09-08T09:48:39.287Z,16.70
2017-09-08T09:51:07.565Z,16.80
2017-09-08T09:53:35.875Z,16.90
2017-09-08T09:56:03.392Z,16.90
2017-09-08T09:58:30.925Z,16.90
2017-09-08T10:00:58.450Z,17.10
2017-09-08T10:08:24.852Z,16.90
2017-09-08T10:10:52.379Z,16.90
2017-09-08T10:13:19.891Z,17.00
2017-09-08T10:15:48.180Z,17.00
2017-09-08T10:18:15.683Z,17.00
2017-09-08T10:20:43.210Z,17.00
2017-09-08T10:23:10.718Z,17.30
2017-09-08T10:25:38.262Z,17.20
2017-09-08T10:28:05.788Z,17.20
2017-09-08T10:30:34.085Z,17.30
2017-09-08T10:33:01.602Z,17.30
2017-09-08T10:35:29.124Z,17.20
2017-09-08T10:37:56.639Z,17.20
2017-09-08T10:40:24.929Z,17.30
2017-09-08T10:42:52.455Z,17.30
2017-09-08T10:45:19.984Z,17.40
2017-09-08T10:47:47.496Z,17.70
2017-09-08T10:50:15.029Z,17.60
2017-09-08T10:52:42.548Z,17.60
2017-09-08T10:55:10.072Z,17.80
2017-09-08T10:57:38.353Z,18.00
2017-09-08T11:00:06.654Z,18.00
2017-09-08T11:02:34.181Z,18.00
2017-09-08T11:05:02.479Z,18.20
2017-09-08T11:07:29.999Z,18.20
2017-09-08T11:09:57.537Z,18.50
2017-09-08T11:12:25.073Z,18.50
2017-09-08T11:14:53.423Z,18.20
2017-09-08T11:17:20.940Z,18.60
2017-09-08T11:19:48.464Z,18.60
2017-09-08T11:22:15.968Z,18.60
2017-09-08T11:24:43.500Z,18.70
2017-09-08T11:27:11.010Z,18.60
2017-09-08T11:29:39.312Z,18.50
2017-09-08T11:32:06.824Z,18.50
2017-09-08T11:34:39.948Z,18.50
2017-09-08T11:37:09.653Z,18.60
2017-09-08T11:39:37.184Z,18.30
2017-09-08T11:42:04.688Z,18.50
2017-09-08T11:44:32.187Z,18.70
2017-09-08T11:46:59.704Z,18.70
2017-09-08T11:49:27.221Z,18.60
2017-09-08T11:51:54.745Z,18.70
2017-09-08T11:54:22.261Z,18.30
2017-09-08T11:56:49.779Z,18.40
2017-09-08T11:59:17.294Z,18.30
2017-09-08T12:01:44.840Z,18.70
2017-09-08T12:04:12.381Z,18.80
2017-09-08T12:06:39.913Z,18.70
2017-09-08T12:09:07.438Z,18.80
2017-09-08T12:11:34.972Z,18.60
2017-09-08T12:14:02.476Z,18.20
2017-09-08T12:16:30.013Z,18.40
2017-09-08T12:18:57.529Z,18.40
2017-09-08T12:21:25.070Z,18.50
2017-09-08T12:23:52.585Z,18.50
2017-09-08T12:26:22.065Z,18.30
2017-09-08T12:28:49.582Z,18.30
2017-09-08T12:31:17.112Z,18.40
2017-09-08T12:33:45.384Z,18.20
2017-09-08T12:36:12.921Z,18.30
2017-09-08T12:38:41.267Z,18.30
2017-09-08T12:41:08.799Z,18.10
2017-09-08T12:43:36.321Z,18.10
2017-09-08T12:46:03.869Z,18.40
2017-09-08T12:48:31.392Z,18.20
2017-09-08T12:50:58.920Z,18.30
2017-09-08T12:53:26.429Z,17.90
2017-09-08T12:55:53.961Z,17.90
2017-09-08T12:58:21.468Z,17.90
2017-09-08T13:00:48.996Z,18.00
2017-09-08T13:03:16.526Z,18.10
2017-09-08T13:05:44.066Z,18.10
2017-09-08T13:08:11.590Z,18.00
2017-09-08T13:10:39.137Z,18.00
2017-09-08T13:13:06.671Z,17.80
2017-09-08T13:15:34.189Z,17.80
2017-09-08T13:18:01.716Z,17.50
2017-09-08T13:20:29.234Z,17.40
2017-09-08T13:22:57.522Z,17.20
2017-09-08T13:25:26.615Z,17.20
2017-09-08T13:27:54.149Z,17.10
2017-09-08T13:30:21.666Z,17.10
2017-09-08T13:32:49.197Z,17.30
2017-09-08T13:35:17.463Z,17.20
2017-09-08T13:37:45.757Z,17.20
2017-09-08T13:40:13.278Z,17.10
2017-09-08T13:42:42.692Z,17.20
2017-09-08T13:45:10.968Z,17.20
2017-09-08T13:47:39.269Z,17.20
2017-09-08T13:50:06.791Z,17.20
2017-09-08T13:52:34.315Z,16.90
2017-09-08T13:55:01.842Z,17.00
2017-09-08T13:57:30.136Z,17.10
2017-09-08T13:59:57.657Z,17.00
2017-09-08T14:02:25.180Z,16.90
2017-09-08T14:04:52.741Z,16.60
2017-09-08T14:07:20.264Z,16.60
2017-09-08T14:09:48.554Z,16.90
2017-09-08T14:12:16.093Z,17.00
2017-09-08T14:14:44.364Z,16.90
2017-09-08T14:17:12.653Z,16.80
2017-09-08T14:19:40.178Z,16.90
2017-09-08T14:22:07.709Z,16.70
2017-09-08T14:24:35.233Z,16.90
2017-09-08T14:27:02.753Z,16.80
2017-09-08T14:29:30.275Z,16.80
2017-09-08T14:31:57.808Z,16.90
2017-09-08T14:34:25.325Z,16.70
2017-09-08T14:36:52.843Z,16.80
2017-09-08T14:39:21.489Z,16.70
2017-09-08T14:41:49.051Z,16.90
2017-09-08T14:44:16.558Z,17.00
2017-09-08T14:46:44.093Z,17.00
2017-09-08T14:49:11.611Z,17.00
2017-09-08T14:51:39.125Z,17.00
2017-09-08T14:54:06.653Z,16.90
2017-09-08T14:56:35.300Z,17.10
2017-09-08T14:59:02.835Z,17.10
2017-09-08T15:01:30.362Z,17.10
2017-09-08T15:03:58.681Z,17.20
2017-09-08T15:06:26.200Z,17.10
2017-09-08T15:08:54.488Z,17.20
2017-09-08T15:11:22.770Z,17.20
2017-09-08T15:13:51.071Z,17.30
2017-09-08T15:16:18.585Z,17.30
2017-09-08T15:18:46.884Z,17.40
2017-09-08T15:21:15.156Z,17.30
2017-09-08T15:23:42.684Z,17.30
2017-09-08T15:26:10.205Z,17.30
2017-09-08T15:28:37.745Z,17.30
2017-09-08T15:31:05.248Z,17.20
2017-09-08T15:33:32.784Z,17.20
2017-09-08T15:36:00.309Z,17.20
2017-09-08T15:38:27.888Z,17.20
2017-09-08T15:40:55.420Z,17.20
2017-09-08T15:43:22.946Z,17.30
2017-09-08T15:45:50.453Z,17.10
2017-09-08T15:48:17.988Z,17.20
2017-09-08T15:50:45.491Z,17.20
2017-09-08T15:53:13.012Z,17.20
2017-09-08T15:55:40.527Z,17.10
2017-09-08T15:58:08.061Z,17.10
2017-09-08T16:00:35.573Z,17.10
2017-09-08T16:03:03.099Z,17.10
2017-09-08T16:05:30.604Z,17.10
2017-09-08T16:07:58.137Z,17.10
2017-09-08T16:10:25.653Z,17.10
2017-09-08T16:12:53.188Z,17.00
2017-09-08T16:15:20.696Z,16.90
2017-09-08T16:17:48.228Z,16.90
2017-09-08T16:20:15.746Z,16.90
2017-09-08T16:22:43.307Z,16.90
2017-09-08T16:25:10.817Z,16.80
2017-09-08T16:27:38.328Z,16.90
2017-09-08T16:30:05.856Z,16.80
2017-09-08T16:32:33.370Z,16.70
2017-09-08T16:35:01.678Z,16.70
2017-09-08T16:37:29.192Z,16.70
2017-09-08T16:39:57.717Z,16.60
2017-09-08T16:42:25.235Z,16.50
2017-09-08T16:44:52.770Z,16.50
2017-09-08T16:47:20.312Z,16.50
2017-09-08T16:49:48.828Z,16.40
2017-09-08T16:52:16.345Z,16.40
2017-09-08T16:54:43.872Z,16.20
2017-09-08T16:57:12.161Z,16.20
2017-09-08T16:59:40.463Z,16.10
2017-09-08T17:02:08.520Z,16.10
2017-09-08T17:04:36.066Z,16.10
2017-09-08T17:07:04.347Z,16.10
2017-09-08T17:09:32.635Z,16.10
2017-09-08T17:12:00.167Z,16.10
2017-09-08T17:14:27.692Z,16.00
2017-09-08T17:16:55.209Z,15.90
2017-09-08T17:19:22.736Z,15.90
2017-09-08T17:21:50.244Z,15.90
2017-09-08T17:24:17.779Z,15.90
2017-09-08T17:26:45.294Z,16.00
2017-09-08T17:29:12.820Z,15.90
2017-09-08T17:31:40.328Z,16.00
2017-09-08T17:34:07.877Z,16.00
2017-09-08T17:36:35.389Z,16.00
2017-09-08T17:39:02.919Z,16.00
2017-09-08T17:41:30.429Z,16.00
2017-09-08T17:43:57.961Z,16.00
2017-09-08T17:46:25.472Z,16.00
2017-09-08T17:48:52.997Z,16.00
2017-09-08T17:51:20.508Z,16.00
2017-09-08T17:53:48.035Z,16.00
2017-09-08T17:56:15.558Z,16.20
2017-09-08T17:58:43.112Z,16.10
2017-09-08T18:01:10.619Z,16.10
2017-09-08T18:03:38.148Z,16.00
2017-09-08T18:06:05.677Z,16.00
2017-09-08T18:08:33.193Z,15.90
2017-09-08T18:11:00.720Z,15.80
2017-09-08T18:13:28.226Z,15.80
2017-09-08T18:15:55.759Z,15.90
2017-09-08T18:18:23.269Z,15.80
2017-09-08T18:20:50.802Z,15.80
2017-09-08T18:23:18.313Z,15.70
2017-09-08T18:25:46.974Z,15.40
2017-09-08T18:28:14.476Z,15.40
2017-09-08T18:30:42.009Z,15.50
2017-09-08T18:33:09.525Z,15.50
2017-09-08T18:35:37.069Z,15.40
2017-09-08T18:38:05.346Z,15.40
2017-09-08T18:40:32.876Z,15.30
2017-09-08T18:50:28.145Z,15.40
2017-09-08T18:52:55.661Z,15.40
2017-09-08T18:55:23.188Z,15.40
2017-09-08T18:57:50.695Z,15.40
2017-09-08T19:00:18.259Z,15.30
2017-09-08T19:02:45.757Z,15.30
2017-09-08T19:05:13.273Z,15.30
2017-09-08T19:07:40.813Z,15.40
2017-09-08T19:10:08.328Z,15.40
2017-09-08T19:12:35.852Z,15.40
2017-09-08T19:15:04.145Z,15.50
2017-09-08T19:17:31.676Z,15.50
2017-09-08T19:19:59.192Z,15.40
2017-09-08T19:22:26.723Z,15.30
2017-09-08T19:24:55.004Z,15.20
2017-09-08T19:27:22.532Z,15.20
2017-09-08T19:29:51.332Z,15.20
2017-09-08T19:32:18.973Z,15.30
2017-09-08T19:34:46.564Z,15.30
2017-09-08T19:37:14.098Z,15.40
2017-09-08T19:39:42.717Z,15.30
2017-09-08T19:42:10.258Z,15.30
2017-09-08T19:44:38.528Z,15.30
2017-09-08T19:47:06.049Z,15.20
2017-09-08T19:49:33.564Z,15.20
2017-09-08T19:52:01.093Z,15.20
2017-09-08T19:54:28.606Z,15.30
2017-09-08T19:56:56.124Z,15.30
2017-09-08T19:59:24.421Z,15.30
2017-09-08T20:01:51.944Z,15.30
2017-09-08T20:04:19.456Z,15.30
2017-09-08T20:21:40.235Z,15.40
2017-09-08T20:29:05.496Z,15.50
2017-09-08T20:31:33.016Z,15.60
2017-09-08T20:34:00.528Z,15.60
2017-09-08T20:36:28.048Z,15.60
2017-09-08T20:41:24.455Z,15.60
2017-09-08T20:48:50.102Z,15.60
2017-09-08T20:51:17.625Z,15.60
2017-09-08T20:53:45.157Z,15.60
2017-09-08T21:06:08.128Z,15.80
2017-09-08T21:18:31.143Z,15.80
2017-09-08T21:20:58.661Z,15.90
2017-09-08T21:23:26.180Z,15.90
2017-09-08T21:25:53.680Z,16.00
2017-09-08T21:28:21.205Z,15.90
2017-09-08T21:30:48.708Z,15.90
2017-09-08T21:33:16.237Z,15.90
2017-09-08T21:35:43.754Z,15.90
2017-09-08T21:38:11.285Z,15.90
2017-09-08T21:40:38.792Z,15.80
2017-09-08T21:43:06.313Z,15.90
2017-09-08T21:45:34.592Z,15.90
2017-09-08T21:50:30.975Z,15.90
2017-09-08T21:52:58.505Z,15.90
2017-09-08T21:55:26.782Z,15.90
2017-09-08T21:57:54.305Z,15.90
2017-09-08T22:00:21.808Z,15.80
2017-09-08T22:02:49.337Z,15.90
2017-09-08T22:05:16.844Z,15.90
2017-09-08T22:07:44.369Z,15.80
2017-09-08T22:10:11.882Z,15.90
2017-09-08T22:12:39.422Z,15.90
2017-09-08T22:15:06.972Z,15.90
2017-09-08T22:17:34.493Z,15.90
2017-09-08T22:20:01.999Z,15.80
2017-09-08T22:22:29.545Z,15.90
2017-09-08T22:24:57.825Z,15.90
2017-09-08T22:27:25.328Z,15.90
2017-09-08T22:29:52.850Z,15.80
2017-09-08T22:32:20.356Z,15.80
2017-09-08T22:34:47.885Z,15.80
2017-09-08T22:37:15.389Z,15.80
2017-09-08T22:39:42.917Z,15.70
2017-09-08T22:42:10.436Z,15.80
2017-09-08T22:44:37.969Z,15.70
2017-09-08T22:47:05.479Z,15.70
2017-09-08T22:49:33.013Z,15.70
2017-09-08T22:52:00.524Z,15.70
2017-09-08T22:54:31.897Z,15.60
2017-09-08T22:56:59.413Z,15.70
2017-09-08T22:59:26.946Z,15.60
2017-09-08T23:01:55.217Z,15.60
2017-09-08T23:04:22.753Z,15.60
2017-09-08T23:06:50.270Z,15.50
2017-09-08T23:09:17.788Z,15.60
2017-09-08T23:11:45.310Z,15.60
2017-09-08T23:14:12.840Z,15.60
2017-09-08T23:16:40.348Z,15.50
2017-09-08T23:19:07.880Z,15.50
2017-09-08T23:21:35.396Z,15.60
2017-09-08T23:24:02.929Z,15.50
2017-09-08T23:26:30.432Z,15.50
2017-09-08T23:28:57.957Z,15.50
2017-09-08T23:31:25.459Z,15.40
2017-09-08T23:33:52.984Z,15.40
2017-09-08T23:36:20.493Z,15.50
2017-09-08T23:38:48.028Z,15.50
2017-09-08T23:41:15.535Z,15.50
2017-09-08T23:43:43.064Z,15.50
2017-09-08T23:46:10.576Z,15.50
2017-09-08T23:48:38.879Z,15.60
2017-09-08T23:51:06.394Z,15.50
2017-09-08T23:53:33.928Z,15.50
2017-09-08T23:56:01.436Z,15.50
2017-09-08T23:58:29.717Z,15.50
